createdAt,value
2018-12-27T00:00:11.162Z,6.00
2018-12-27T00:03:43.785Z,6.07
2018-12-27T00:04:44.269Z,6.04
2018-12-27T00:05:44.744Z,6.04
2018-12-27T00:06:45.309Z,6.07
2018-12-27T00:07:45.793Z,6.01
2018-12-27T00:08:46.273Z,6.06
2018-12-27T00:09:46.745Z,6.06
2018-12-27T00:10:47.225Z,6.10
2018-12-27T00:11:47.802Z,6.03
2018-12-27T00:12:48.279Z,6.04
2018-12-27T00:13:48.762Z,5.95
2018-12-27T00:14:49.242Z,6.06
2018-12-27T00:15:49.726Z,6.06
2018-12-27T00:16:50.211Z,5.92
2018-12-27T00:17:50.711Z,5.96
2018-12-27T00:18:51.183Z,6.01
2018-12-27T00:19:51.749Z,6.00
2018-12-27T00:20:52.232Z,5.98
2018-12-27T00:21:52.787Z,6.06
2018-12-27T00:22:53.260Z,5.95
2018-12-27T00:23:53.829Z,5.96
2018-12-27T00:24:54.306Z,5.95
2018-12-27T00:25:54.865Z,6.07
2018-12-27T00:26:55.344Z,5.95
2018-12-27T00:27:55.835Z,6.04
2018-12-27T00:28:56.419Z,5.96
2018-12-27T00:29:56.890Z,5.98
2018-12-27T00:30:57.453Z,6.01
2018-12-27T00:31:57.944Z,6.07
2018-12-27T00:33:03.127Z,6.13
2018-12-27T00:33:59.946Z,5.96
2018-12-27T00:35:00.431Z,6.00
2018-12-27T00:36:00.984Z,6.10
2018-12-27T00:37:01.457Z,6.03
2018-12-27T00:38:01.997Z,5.98
2018-12-27T00:39:02.471Z,6.01
2018-12-27T00:40:02.965Z,6.04
2018-12-27T00:41:03.458Z,6.04
2018-12-27T00:42:03.972Z,6.11
2018-12-27T00:43:04.521Z,6.09
2018-12-27T00:44:04.938Z,6.07
2018-12-27T00:45:05.529Z,6.01
2018-12-27T00:46:05.995Z,6.00
2018-12-27T00:47:06.490Z,5.92
2018-12-27T00:48:07.085Z,6.00
2018-12-27T00:49:07.561Z,5.96
2018-12-27T00:50:08.116Z,5.95
2018-12-27T00:51:08.597Z,6.07
2018-12-27T00:52:09.080Z,6.03
2018-12-27T00:53:09.556Z,6.00
2018-12-27T00:54:10.046Z,5.93
2018-12-27T00:55:10.613Z,5.98
2018-12-27T00:56:11.087Z,6.00
2018-12-27T00:57:11.587Z,5.95
2018-12-27T00:58:12.161Z,6.01
2018-12-27T00:59:12.637Z,5.96
2018-12-27T01:00:13.122Z,6.01
2018-12-27T01:01:13.611Z,5.89
2018-12-27T01:02:14.140Z,5.95
2018-12-27T01:03:14.632Z,5.95
2018-12-27T01:04:15.105Z,5.93
2018-12-27T01:05:15.582Z,5.95
2018-12-27T01:06:16.114Z,5.95
2018-12-27T01:07:16.589Z,5.95
2018-12-27T01:08:17.152Z,5.93
2018-12-27T01:09:17.620Z,5.92
2018-12-27T01:10:18.198Z,5.98
2018-12-27T01:11:18.693Z,6.06
2018-12-27T01:12:19.171Z,5.95
2018-12-27T01:13:19.701Z,6.04
2018-12-27T01:14:20.190Z,5.98
2018-12-27T01:15:20.689Z,5.96
2018-12-27T01:16:21.151Z,5.96
2018-12-27T01:17:21.726Z,5.86
2018-12-27T01:18:22.192Z,5.85
2018-12-27T01:19:22.665Z,5.92
2018-12-27T01:20:23.148Z,5.96
2018-12-27T01:21:23.642Z,5.86
2018-12-27T01:22:24.211Z,5.89
2018-12-27T01:23:24.689Z,5.82
2018-12-27T01:24:25.250Z,5.89
2018-12-27T01:25:25.731Z,5.88
2018-12-27T01:26:26.208Z,5.85
2018-12-27T01:27:26.686Z,5.96
2018-12-27T01:28:27.162Z,5.83
2018-12-27T01:29:27.744Z,5.86
2018-12-27T01:30:28.233Z,5.88
2018-12-27T01:31:28.801Z,5.89
2018-12-27T01:32:29.263Z,5.88
2018-12-27T01:33:30.047Z,5.93
2018-12-27T01:34:30.234Z,5.95
2018-12-27T01:35:30.723Z,5.85
2018-12-27T01:36:31.190Z,5.85
2018-12-27T01:37:31.683Z,5.91
2018-12-27T01:38:32.206Z,5.83
2018-12-27T01:39:32.685Z,5.82
2018-12-27T01:40:33.246Z,5.83
2018-12-27T01:41:33.734Z,5.78
2018-12-27T01:42:34.281Z,5.85
2018-12-27T01:43:34.754Z,5.92
2018-12-27T01:44:35.218Z,5.78
2018-12-27T01:45:35.703Z,5.78
2018-12-27T01:46:36.165Z,5.85
2018-12-27T01:47:36.946Z,5.83
2018-12-27T01:48:37.429Z,5.89
2018-12-27T01:49:38.015Z,5.86
2018-12-27T01:50:38.493Z,5.93
2018-12-27T01:51:39.054Z,5.81
2018-12-27T01:52:39.525Z,5.81
2018-12-27T01:53:40.068Z,5.86
2018-12-27T01:54:40.547Z,5.78
2018-12-27T01:55:41.098Z,5.77
2018-12-27T01:56:41.576Z,5.91
2018-12-27T01:57:42.139Z,5.88
2018-12-27T01:58:42.617Z,5.82
2018-12-27T01:59:43.104Z,5.86
2018-12-27T02:00:43.692Z,5.74
2018-12-27T02:01:44.170Z,5.86
2018-12-27T02:02:44.659Z,5.86
2018-12-27T02:03:45.145Z,5.85
2018-12-27T02:04:45.617Z,5.83
2018-12-27T02:05:46.108Z,5.92
2018-12-27T02:06:46.700Z,5.78
2018-12-27T02:07:47.175Z,5.91
2018-12-27T02:08:47.667Z,5.82
2018-12-27T02:09:48.143Z,5.78
2018-12-27T02:10:49.699Z,5.78
2018-12-27T02:11:50.181Z,5.83
2018-12-27T02:12:50.733Z,5.83
2018-12-27T02:13:51.217Z,5.86
2018-12-27T02:15:06.416Z,5.78
2018-12-27T02:16:06.891Z,5.77
2018-12-27T02:17:09.399Z,5.86
2018-12-27T02:18:09.878Z,5.78
2018-12-27T02:19:38.390Z,5.82
2018-12-27T02:20:38.861Z,5.81
2018-12-27T02:22:01.448Z,5.88
2018-12-27T02:23:01.936Z,5.85
2018-12-27T03:24:29.047Z,5.73
2018-12-27T03:25:29.523Z,5.78
2018-12-27T03:26:30.011Z,5.67
2018-12-27T03:27:30.528Z,5.70
2018-12-27T03:28:31.014Z,5.73
2018-12-27T03:29:31.566Z,5.71
2018-12-27T03:30:32.054Z,5.68
2018-12-27T03:31:32.635Z,5.59
2018-12-27T03:32:33.094Z,5.68
2018-12-27T03:33:33.561Z,5.59
2018-12-27T03:34:34.042Z,5.63
2018-12-27T03:35:34.695Z,5.53
2018-12-27T03:36:35.283Z,5.53
2018-12-27T03:37:35.683Z,5.50
2018-12-27T03:38:51.085Z,5.53
2018-12-27T03:39:51.642Z,5.50
2018-12-27T03:40:52.124Z,5.50
2018-12-27T03:41:52.622Z,5.46
2018-12-27T03:42:53.162Z,5.49
2018-12-27T03:43:53.669Z,5.45
2018-12-27T03:44:54.133Z,5.41
2018-12-27T03:45:54.926Z,5.41
2018-12-27T03:46:55.412Z,5.41
2018-12-27T03:47:55.886Z,5.45
2018-12-27T03:48:56.363Z,5.34
2018-12-27T03:49:56.892Z,5.37
2018-12-27T03:50:57.365Z,5.28
2018-12-27T03:51:57.940Z,5.30
2018-12-27T03:52:58.413Z,5.25
2018-12-27T03:53:58.891Z,5.27
2018-12-27T03:55:00.409Z,5.35
2018-12-27T03:56:00.903Z,5.32
2018-12-27T03:57:08.118Z,5.31
2018-12-27T03:58:08.605Z,5.28
2018-12-27T03:59:09.146Z,5.35
2018-12-27T04:00:09.672Z,5.30
2018-12-27T04:01:10.186Z,5.27
2018-12-27T04:02:10.657Z,5.19
2018-12-27T04:03:12.251Z,5.22
2018-12-27T04:04:12.721Z,5.17
2018-12-27T04:05:14.310Z,5.14
2018-12-27T04:06:14.781Z,5.12
2018-12-27T04:07:17.495Z,5.13
2018-12-27T04:08:17.985Z,5.13
2018-12-27T04:09:19.562Z,5.12
2018-12-27T04:10:20.033Z,5.16
2018-12-27T04:11:20.591Z,5.16
2018-12-27T04:12:21.142Z,5.05
2018-12-27T04:13:21.633Z,5.07
2018-12-27T04:14:22.113Z,5.13
2018-12-27T04:15:22.688Z,5.10
2018-12-27T04:16:23.152Z,5.04
2018-12-27T04:17:23.715Z,5.04
2018-12-27T04:18:24.192Z,5.05
2018-12-27T04:19:24.675Z,5.02
2018-12-27T04:20:25.147Z,4.98
2018-12-27T04:21:25.642Z,5.07
2018-12-27T04:22:26.207Z,5.01
2018-12-27T04:23:26.680Z,5.04
2018-12-27T04:24:27.237Z,5.01
2018-12-27T04:25:27.727Z,4.99
2018-12-27T04:26:28.296Z,4.99
2018-12-27T04:27:28.775Z,5.04
2018-12-27T04:28:31.374Z,4.96
2018-12-27T04:29:31.839Z,4.92
2018-12-27T04:30:33.437Z,4.94
2018-12-27T04:31:33.904Z,4.96
2018-12-27T04:32:34.463Z,4.92
2018-12-27T04:33:34.948Z,4.88
2018-12-27T04:34:37.457Z,4.89
2018-12-27T04:35:37.934Z,4.92
2018-12-27T04:36:38.420Z,4.83
2018-12-27T04:37:38.901Z,4.91
2018-12-27T04:38:47.103Z,4.86
2018-12-27T04:39:47.587Z,4.80
2018-12-27T04:40:48.148Z,4.84
2018-12-27T04:41:48.637Z,4.75
2018-12-27T04:42:49.162Z,4.76
2018-12-27T04:43:49.648Z,4.73
2018-12-27T04:44:50.147Z,4.80
2018-12-27T04:45:50.622Z,4.80
2018-12-27T04:47:15.062Z,4.75
2018-12-27T04:48:17.035Z,4.76
2018-12-27T04:49:38.530Z,4.79
2018-12-27T04:50:39.020Z,4.69
2018-12-27T04:51:39.537Z,4.76
2018-12-27T04:52:40.040Z,4.69
2018-12-27T04:53:40.497Z,4.77
2018-12-27T04:54:41.046Z,4.75
2018-12-27T04:55:41.440Z,4.75
2018-12-27T04:56:41.916Z,4.62
2018-12-27T04:57:42.408Z,4.65
2018-12-27T04:58:42.981Z,4.58
2018-12-27T04:59:43.472Z,4.67
2018-12-27T05:00:43.959Z,4.72
2018-12-27T05:01:44.428Z,4.57
2018-12-27T05:02:44.915Z,4.67
2018-12-27T05:03:45.406Z,4.69
2018-12-27T05:04:45.871Z,4.64
2018-12-27T05:05:46.357Z,4.58
2018-12-27T05:06:46.844Z,4.59
2018-12-27T05:07:47.309Z,4.50
2018-12-27T05:08:47.781Z,4.46
2018-12-27T05:09:48.248Z,4.55
2018-12-27T05:10:48.733Z,4.57
2018-12-27T05:11:49.215Z,4.50
2018-12-27T05:12:49.697Z,4.50
2018-12-27T05:13:50.154Z,4.50
2018-12-27T05:14:50.623Z,4.51
2018-12-27T05:15:51.102Z,4.40
2018-12-27T05:16:51.603Z,4.47
2018-12-27T05:17:52.074Z,4.39
2018-12-27T05:18:52.549Z,4.40
2018-12-27T05:19:53.036Z,4.37
2018-12-27T05:20:53.527Z,4.50
2018-12-27T05:21:54.015Z,4.33
2018-12-27T05:22:54.514Z,4.39
2018-12-27T05:23:54.997Z,4.39
2018-12-27T05:24:55.547Z,4.34
2018-12-27T05:25:56.068Z,4.34
2018-12-27T05:26:56.488Z,4.24
2018-12-27T05:27:56.965Z,4.24
2018-12-27T05:28:57.441Z,4.26
2018-12-27T05:29:57.951Z,4.21
2018-12-27T05:30:58.457Z,4.33
2018-12-27T05:31:58.998Z,4.21
2018-12-27T05:32:59.415Z,4.28
2018-12-27T05:33:59.899Z,4.24
2018-12-27T05:35:00.368Z,4.28
2018-12-27T05:36:00.831Z,4.21
2018-12-27T05:37:01.310Z,4.24
2018-12-27T05:38:01.791Z,4.18
2018-12-27T05:39:02.280Z,4.29
2018-12-27T05:40:02.757Z,4.19
2018-12-27T05:41:03.221Z,4.21
2018-12-27T05:42:03.700Z,4.18
2018-12-27T05:43:04.176Z,4.24
2018-12-27T05:44:04.657Z,4.24
2018-12-27T05:45:05.169Z,4.21
2018-12-27T05:46:05.610Z,4.21
2018-12-27T05:47:06.102Z,4.18
2018-12-27T05:48:06.578Z,4.21
2018-12-27T05:49:07.043Z,4.10
2018-12-27T05:50:07.530Z,4.25
2018-12-27T05:51:08.009Z,4.15
2018-12-27T05:52:08.487Z,4.10
2018-12-27T05:53:08.966Z,4.08
2018-12-27T05:54:09.432Z,4.12
2018-12-27T05:55:09.904Z,4.12
2018-12-27T05:56:10.376Z,4.16
2018-12-27T05:57:10.854Z,4.08
2018-12-27T05:58:11.340Z,4.12
2018-12-27T05:59:11.841Z,4.18
2018-12-27T06:00:12.319Z,4.08
2018-12-27T06:01:12.793Z,4.12
2018-12-27T06:02:13.266Z,4.12
2018-12-27T06:03:13.818Z,4.07
2018-12-27T06:04:14.290Z,4.14
2018-12-27T06:05:14.775Z,4.03
2018-12-27T06:06:15.252Z,4.00
2018-12-27T06:07:15.741Z,3.97
2018-12-27T06:08:16.226Z,3.96
2018-12-27T06:09:16.732Z,4.00
2018-12-27T06:10:17.197Z,3.94
2018-12-27T06:11:17.680Z,3.98
2018-12-27T06:12:18.164Z,3.98
2018-12-27T06:13:18.642Z,4.03
2018-12-27T06:14:19.125Z,3.97
2018-12-27T06:15:19.635Z,4.06
2018-12-27T06:16:20.111Z,3.96
2018-12-27T06:17:20.679Z,4.01
2018-12-27T06:18:21.141Z,4.01
2018-12-27T06:19:21.717Z,3.96
2018-12-27T06:20:22.196Z,4.01
2018-12-27T06:21:22.673Z,3.98
2018-12-27T06:22:23.164Z,3.96
2018-12-27T06:23:23.685Z,3.94
2018-12-27T06:24:24.155Z,4.01
2018-12-27T06:25:24.638Z,4.01
2018-12-27T06:26:25.140Z,3.96
2018-12-27T06:27:25.621Z,3.94
2018-12-27T06:28:26.177Z,3.98
2018-12-27T06:29:26.663Z,3.90
2018-12-27T06:30:27.132Z,3.92
2018-12-27T06:31:27.667Z,3.97
2018-12-27T06:32:28.117Z,3.92
2018-12-27T06:33:28.599Z,3.90
2018-12-27T06:34:29.082Z,3.83
2018-12-27T06:35:29.601Z,3.94
2018-12-27T06:36:30.089Z,3.80
2018-12-27T06:37:30.639Z,3.90
2018-12-27T06:38:31.131Z,3.88
2018-12-27T06:39:39.647Z,3.92
2018-12-27T06:40:40.131Z,3.89
2018-12-27T06:41:41.710Z,3.83
2018-12-27T06:42:42.198Z,3.79
2018-12-27T06:43:57.600Z,3.83
2018-12-27T06:44:58.080Z,3.83
2018-12-27T06:45:58.637Z,3.83
2018-12-27T06:46:59.117Z,3.83
2018-12-27T06:47:59.590Z,3.82
2018-12-27T06:49:00.246Z,3.90
2018-12-27T06:50:00.592Z,3.79
2018-12-27T06:51:01.034Z,3.80
2018-12-27T06:52:01.846Z,3.82
2018-12-27T06:53:02.472Z,3.80
2018-12-27T06:54:03.987Z,3.89
2018-12-27T06:55:04.458Z,3.85
2018-12-27T06:56:04.946Z,3.85
2018-12-27T06:57:07.039Z,3.79
2018-12-27T06:58:07.534Z,3.79
2018-12-27T06:59:08.009Z,3.85
2018-12-27T07:00:08.503Z,3.85
2018-12-27T07:01:08.969Z,3.82
2018-12-27T07:02:09.439Z,3.83
2018-12-27T07:03:09.983Z,3.79
2018-12-27T07:04:10.461Z,3.83
2018-12-27T07:05:12.972Z,3.82
2018-12-27T07:06:13.459Z,3.80
2018-12-27T07:07:14.008Z,3.75
2018-12-27T07:08:14.499Z,3.80
2018-12-27T07:09:15.041Z,3.78
2018-12-27T07:10:15.522Z,3.72
2018-12-27T07:11:18.126Z,3.78
2018-12-27T07:12:18.604Z,3.76
2018-12-27T07:13:20.186Z,3.79
2018-12-27T07:14:20.666Z,3.78
2018-12-27T07:15:22.249Z,3.75
2018-12-27T07:16:22.736Z,3.76
2018-12-27T07:17:23.279Z,3.78
2018-12-27T07:18:23.759Z,3.71
2018-12-27T07:19:39.168Z,3.78
2018-12-27T07:20:39.642Z,3.75
2018-12-27T07:21:47.073Z,3.75
2018-12-27T07:22:47.535Z,3.75
2018-12-27T07:23:48.108Z,3.76
2018-12-27T07:24:48.586Z,3.76
2018-12-27T07:25:50.172Z,3.79
2018-12-27T07:26:50.657Z,3.78
2018-12-27T07:27:53.248Z,3.78
2018-12-27T07:28:53.725Z,3.80
2018-12-27T07:30:01.167Z,3.80
2018-12-27T07:31:01.637Z,3.80
2018-12-27T07:32:04.241Z,3.80
2018-12-27T07:33:04.732Z,3.83
2018-12-27T07:34:06.304Z,3.79
2018-12-27T07:35:06.793Z,3.82
2018-12-27T07:36:07.418Z,3.78
2018-12-27T07:37:07.906Z,3.79
2018-12-27T07:38:08.486Z,3.82
2018-12-27T07:39:08.968Z,3.89
2018-12-27T07:40:09.444Z,3.85
2018-12-27T07:41:09.920Z,3.79
2018-12-27T07:42:10.393Z,3.85
2018-12-27T07:43:10.952Z,3.82
2018-12-27T07:44:11.438Z,3.82
2018-12-27T07:45:11.986Z,3.83
2018-12-27T07:46:12.465Z,3.80
2018-12-27T07:47:13.027Z,3.85
2018-12-27T07:48:13.492Z,3.85
2018-12-27T07:49:13.973Z,3.98
2018-12-27T07:50:14.448Z,3.83
2018-12-27T07:51:15.000Z,3.79
2018-12-27T07:52:15.489Z,3.83
2018-12-27T07:53:16.384Z,3.98
2018-12-27T07:54:16.703Z,3.96
2018-12-27T07:55:17.281Z,3.82
2018-12-27T07:56:17.765Z,3.94
2018-12-27T07:57:18.318Z,3.97
2018-12-27T07:58:18.802Z,3.98
2018-12-27T07:59:20.379Z,3.97
2018-12-27T08:00:20.864Z,4.01
2018-12-27T08:01:21.349Z,4.03
2018-12-27T08:02:21.857Z,4.14
2018-12-27T08:03:23.371Z,4.08
2018-12-27T08:04:23.850Z,4.08
2018-12-27T08:05:25.435Z,4.12
2018-12-27T08:06:25.910Z,4.21
2018-12-27T08:07:26.478Z,4.15
2018-12-27T08:08:26.948Z,4.22
2018-12-27T08:09:27.413Z,4.25
2018-12-27T08:10:27.928Z,4.21
2018-12-27T08:11:28.405Z,4.19
2018-12-27T08:12:28.887Z,4.29
2018-12-27T08:13:29.388Z,4.24
2018-12-27T08:14:29.867Z,4.24
2018-12-27T08:15:30.422Z,4.28
2018-12-27T08:16:30.897Z,4.36
2018-12-27T08:17:31.383Z,4.32
2018-12-27T08:18:31.855Z,4.33
2018-12-27T08:19:32.331Z,4.36
2018-12-27T08:20:33.834Z,4.34
2018-12-27T08:21:34.308Z,4.39
2018-12-27T08:22:35.183Z,4.36
2018-12-27T08:23:35.672Z,4.36
2018-12-27T08:24:36.155Z,4.26
2018-12-27T08:25:36.712Z,4.36
2018-12-27T08:26:37.227Z,4.39
2018-12-27T08:27:37.777Z,4.36
2018-12-27T08:28:38.260Z,4.36
2018-12-27T08:29:38.739Z,4.39
2018-12-27T08:30:39.332Z,4.37
2018-12-27T08:31:39.822Z,4.42
2018-12-27T08:32:40.373Z,4.42
2018-12-27T08:33:40.856Z,4.43
2018-12-27T08:34:41.338Z,4.42
2018-12-27T08:35:41.823Z,4.50
2018-12-27T08:36:42.302Z,4.51
2018-12-27T08:37:51.559Z,4.54
2018-12-27T08:38:52.039Z,4.42
2018-12-27T08:39:52.528Z,4.44
2018-12-27T08:40:52.999Z,4.51
2018-12-27T08:41:53.491Z,4.55
2018-12-27T08:42:53.955Z,4.47
2018-12-27T08:43:54.513Z,4.57
2018-12-27T08:44:54.911Z,4.61
2018-12-27T08:46:03.060Z,4.54
2018-12-27T08:47:03.543Z,4.57
2018-12-27T08:48:04.021Z,4.54
2018-12-27T08:49:04.490Z,4.58
2018-12-27T08:50:04.963Z,4.61
2018-12-27T08:51:05.475Z,4.61
2018-12-27T08:52:05.960Z,4.58
2018-12-27T08:53:08.464Z,4.54
2018-12-27T08:54:08.943Z,4.67
2018-12-27T08:55:09.506Z,4.59
2018-12-27T08:56:09.983Z,4.61
2018-12-27T08:57:10.503Z,4.61
2018-12-27T08:58:10.979Z,4.65
2018-12-27T08:59:11.477Z,4.58
2018-12-27T09:00:11.955Z,4.67
2018-12-27T09:01:12.513Z,4.59
2018-12-27T09:02:13.002Z,4.57
2018-12-27T09:03:13.557Z,4.72
2018-12-27T09:04:14.020Z,4.73
2018-12-27T09:05:18.892Z,4.75
2018-12-27T09:06:14.986Z,4.79
2018-12-27T09:07:15.531Z,4.83
2018-12-27T09:08:16.011Z,4.88
2018-12-27T09:09:16.557Z,4.92
2018-12-27T09:10:17.038Z,4.94
2018-12-27T09:11:17.600Z,4.98
2018-12-27T09:12:17.980Z,5.01
2018-12-27T09:13:18.545Z,5.10
2018-12-27T09:14:18.950Z,5.09
2018-12-27T09:15:19.426Z,5.05
2018-12-27T09:16:19.907Z,5.07
2018-12-27T09:17:21.394Z,5.05
2018-12-27T09:18:22.659Z,5.10
2018-12-27T09:19:22.375Z,5.12
2018-12-27T09:20:22.849Z,5.20
2018-12-27T09:21:25.355Z,5.23
2018-12-27T09:22:25.910Z,5.25
2018-12-27T09:23:26.389Z,5.32
2018-12-27T09:24:26.876Z,5.35
2018-12-27T09:25:27.365Z,5.34
2018-12-27T09:26:27.829Z,5.41
2018-12-27T09:27:28.298Z,5.45
2018-12-27T09:28:28.780Z,5.52
2018-12-27T09:29:29.253Z,5.52
2018-12-27T09:30:30.838Z,5.57
2018-12-27T09:31:31.318Z,5.55
2018-12-27T09:32:31.874Z,5.67
2018-12-27T09:33:32.353Z,5.74
2018-12-27T09:34:32.915Z,5.77
2018-12-27T09:35:33.402Z,5.85
2018-12-27T09:36:41.630Z,5.85
2018-12-27T09:37:42.113Z,5.89
2018-12-27T09:38:42.664Z,5.93
2018-12-27T09:39:43.153Z,5.96
2018-12-27T09:40:43.707Z,6.09
2018-12-27T09:41:45.250Z,6.11
2018-12-27T09:42:45.727Z,6.16
2018-12-27T09:43:46.284Z,6.22
2018-12-27T09:44:46.770Z,6.21
2018-12-27T09:45:47.251Z,6.33
2018-12-27T09:46:47.736Z,6.36
2018-12-27T09:47:48.211Z,6.40
2018-12-27T09:48:48.684Z,6.41
2018-12-27T09:49:49.163Z,6.43
2018-12-27T09:50:49.644Z,6.50
2018-12-27T09:51:50.130Z,6.51
2018-12-27T09:52:50.619Z,6.54
2018-12-27T09:53:51.113Z,6.63
2018-12-27T09:54:51.598Z,6.66
2018-12-27T09:55:52.083Z,6.62
2018-12-27T09:56:52.565Z,6.68
2018-12-27T09:57:54.056Z,6.71
2018-12-27T09:58:54.532Z,6.72
2018-12-27T09:59:55.006Z,6.69
2018-12-27T10:00:55.488Z,6.80
2018-12-27T10:01:55.981Z,6.71
2018-12-27T10:02:56.466Z,6.76
2018-12-27T10:03:56.944Z,6.79
2018-12-27T10:04:57.431Z,6.79
2018-12-27T10:05:58.926Z,6.79
2018-12-27T10:06:59.412Z,6.79
2018-12-27T10:08:01.898Z,6.84
2018-12-27T10:09:02.361Z,6.80
2018-12-27T10:10:02.849Z,6.89
2018-12-27T10:11:03.326Z,6.89
2018-12-27T10:12:03.808Z,6.98
2018-12-27T10:13:04.284Z,7.01
2018-12-27T10:14:04.783Z,7.13
2018-12-27T10:15:05.270Z,7.17
2018-12-27T10:16:05.755Z,7.09
2018-12-27T10:17:06.231Z,7.24
2018-12-27T10:18:06.703Z,7.32
2018-12-27T10:19:07.198Z,7.34
2018-12-27T10:20:07.699Z,7.47
2018-12-27T10:21:08.178Z,7.47
2018-12-27T10:22:08.639Z,7.59
2018-12-27T10:23:09.132Z,7.58
2018-12-27T10:24:09.615Z,7.58
2018-12-27T10:25:10.106Z,7.71
2018-12-27T10:26:10.599Z,7.79
2018-12-27T10:27:11.069Z,7.84
2018-12-27T10:28:12.567Z,7.85
2018-12-27T10:29:13.037Z,7.99
2018-12-27T10:30:15.534Z,8.02
2018-12-27T10:31:16.007Z,8.03
2018-12-27T10:32:16.491Z,8.14
2018-12-27T10:33:16.956Z,8.12
2018-12-27T10:34:17.442Z,8.10
2018-12-27T10:35:17.918Z,8.14
2018-12-27T10:36:18.393Z,8.29
2018-12-27T10:37:18.895Z,8.33
2018-12-27T10:38:19.357Z,8.37
2018-12-27T10:39:19.853Z,8.32
2018-12-27T10:40:20.332Z,8.40
2018-12-27T10:41:20.923Z,8.47
2018-12-27T10:42:21.412Z,8.51
2018-12-27T10:43:21.967Z,8.60
2018-12-27T10:44:22.451Z,8.65
2018-12-27T10:45:22.942Z,8.65
2018-12-27T10:46:23.422Z,8.62
2018-12-27T10:47:23.902Z,8.71
2018-12-27T10:48:24.454Z,8.75
2018-12-27T10:49:24.927Z,8.78
2018-12-27T10:50:25.495Z,8.78
2018-12-27T10:51:25.976Z,8.81
2018-12-27T10:52:26.527Z,8.88
2018-12-27T10:53:27.000Z,8.84
2018-12-27T10:54:27.503Z,8.76
2018-12-27T10:55:27.985Z,8.75
2018-12-27T10:56:30.590Z,8.76
2018-12-27T10:57:31.066Z,8.84
2018-12-27T10:58:32.644Z,8.87
2018-12-27T10:59:33.134Z,8.88
2018-12-27T11:25:55.560Z,8.72
2018-12-27T11:26:56.058Z,8.73
2018-12-27T11:29:49.925Z,8.57
2018-12-27T11:30:50.418Z,8.53
2018-12-27T11:31:50.916Z,8.45
2018-12-27T11:32:51.434Z,8.48
2018-12-27T11:33:51.897Z,8.39
2018-12-27T11:34:52.379Z,8.37
2018-12-27T11:35:55.855Z,8.29
2018-12-27T11:36:53.347Z,8.33
2018-12-27T11:37:53.808Z,8.28
2018-12-27T11:38:54.286Z,8.32
2018-12-27T11:39:54.754Z,8.32
2018-12-27T11:40:55.287Z,8.39
2018-12-27T11:41:55.732Z,8.35
2018-12-27T11:44:33.165Z,8.47
2018-12-27T11:45:33.650Z,8.35
2018-12-27T11:48:28.487Z,8.36
2018-12-27T11:49:28.980Z,8.35
2018-12-27T11:52:29.222Z,8.26
2018-12-27T11:53:29.662Z,8.25
2018-12-27T11:56:33.724Z,8.12
2018-12-27T11:57:34.222Z,8.18
2018-12-27T12:00:54.238Z,8.26
2018-12-27T12:01:54.720Z,8.35
2018-12-27T12:04:48.739Z,8.45
2018-12-27T12:05:49.224Z,8.53
2018-12-27T12:08:43.576Z,8.68
2018-12-27T12:09:44.046Z,8.58
2018-12-27T12:10:44.513Z,8.66
2018-12-27T12:11:44.997Z,8.65
2018-12-27T12:12:45.482Z,8.78
2018-12-27T12:13:45.959Z,8.87
2018-12-27T12:14:46.475Z,8.90
2018-12-27T12:15:46.958Z,8.79
2018-12-27T12:16:47.449Z,8.94
2018-12-27T12:17:47.931Z,8.96
2018-12-27T12:18:48.406Z,9.04
2018-12-27T12:19:48.875Z,9.02
2018-12-27T12:20:49.361Z,8.90
2018-12-27T12:21:49.837Z,8.88
2018-12-27T12:22:50.313Z,8.90
2018-12-27T12:23:50.854Z,8.88
2018-12-27T12:24:51.348Z,8.84
2018-12-27T12:25:51.838Z,8.91
2018-12-27T12:26:52.297Z,8.87
2018-12-27T12:27:52.789Z,8.94
2018-12-27T12:28:53.270Z,8.88
2018-12-27T12:29:53.756Z,8.91
2018-12-27T12:30:54.233Z,9.04
2018-12-27T12:31:55.720Z,8.97
2018-12-27T12:32:56.193Z,9.05
2018-12-27T12:33:56.677Z,9.02
2018-12-27T12:34:57.153Z,9.04
2018-12-27T12:35:57.649Z,9.02
2018-12-27T12:36:58.126Z,9.09
2018-12-27T12:37:58.607Z,9.09
2018-12-27T12:38:59.094Z,9.09
2018-12-27T12:39:59.584Z,9.10
2018-12-27T12:41:00.096Z,9.12
2018-12-27T12:42:00.546Z,9.02
2018-12-27T12:43:01.035Z,9.10
2018-12-27T12:44:01.525Z,9.10
2018-12-27T12:45:02.025Z,9.04
2018-12-27T12:46:02.487Z,9.01
2018-12-27T12:47:02.959Z,9.05
2018-12-27T12:48:03.437Z,9.05
2018-12-27T12:49:03.929Z,9.02
2018-12-27T12:50:04.420Z,9.04
2018-12-27T12:51:04.905Z,9.06
2018-12-27T12:52:05.394Z,8.99
2018-12-27T12:53:05.877Z,9.09
2018-12-27T12:54:06.354Z,9.06
2018-12-27T12:55:06.847Z,9.06
2018-12-27T12:56:07.326Z,9.12
2018-12-27T12:57:07.822Z,9.10
2018-12-27T12:58:08.301Z,9.20
2018-12-27T12:59:09.788Z,9.16
2018-12-27T13:00:10.267Z,9.32
2018-12-27T13:01:11.754Z,9.34
2018-12-27T13:02:12.234Z,9.34
2018-12-27T13:03:13.715Z,9.43
2018-12-27T13:04:14.202Z,9.42
2018-12-27T13:05:14.721Z,9.53
2018-12-27T13:06:18.214Z,9.45
2018-12-27T13:07:15.769Z,9.45
2018-12-27T13:08:16.164Z,9.46
2018-12-27T13:09:16.649Z,9.46
2018-12-27T13:10:17.138Z,9.45
2018-12-27T13:11:17.605Z,9.49
2018-12-27T13:12:18.089Z,9.45
2018-12-27T13:13:19.580Z,9.48
2018-12-27T13:14:20.071Z,9.58
2018-12-27T13:15:20.554Z,9.50
2018-12-27T13:16:21.023Z,9.52
2018-12-27T13:17:23.512Z,9.50
2018-12-27T13:18:23.990Z,9.49
2018-12-27T13:19:24.481Z,9.61
2018-12-27T13:20:24.988Z,9.60
2018-12-27T13:21:25.464Z,9.57
2018-12-27T13:22:25.946Z,9.57
2018-12-27T13:23:27.516Z,9.57
2018-12-27T13:24:27.914Z,9.52
2018-12-27T13:25:28.390Z,9.53
2018-12-27T13:26:28.870Z,9.46
2018-12-27T13:27:29.348Z,9.50
2018-12-27T13:28:29.825Z,9.56
2018-12-27T13:29:30.309Z,9.50
2018-12-27T13:30:30.787Z,9.35
2018-12-27T13:31:32.394Z,9.45
2018-12-27T13:32:32.872Z,9.32
2018-12-27T13:33:33.428Z,9.35
2018-12-27T13:34:33.917Z,9.24
2018-12-27T13:35:34.407Z,9.23
2018-12-27T13:36:34.895Z,9.18
2018-12-27T13:37:35.397Z,9.21
2018-12-27T13:38:35.878Z,9.05
2018-12-27T13:39:36.361Z,9.04
2018-12-27T13:40:36.843Z,9.01
2018-12-27T13:41:37.372Z,8.90
2018-12-27T13:42:37.851Z,9.02
2018-12-27T13:43:38.330Z,9.04
2018-12-27T13:44:38.815Z,8.97
2018-12-27T13:45:39.286Z,8.94
2018-12-27T13:46:39.775Z,8.91
2018-12-27T13:47:40.359Z,8.91
2018-12-27T13:48:40.843Z,8.93
2018-12-27T13:49:41.393Z,8.76
2018-12-27T13:50:41.887Z,8.78
2018-12-27T13:51:42.440Z,8.87
2018-12-27T13:52:42.911Z,8.84
2018-12-27T13:53:43.473Z,8.73
2018-12-27T13:54:43.955Z,8.73
2018-12-27T13:55:44.517Z,8.71
2018-12-27T13:56:44.989Z,8.66
2018-12-27T13:57:45.479Z,8.68
2018-12-27T13:58:45.962Z,8.66
2018-12-27T13:59:47.487Z,8.68
2018-12-27T14:00:47.934Z,8.65
2018-12-27T14:01:48.411Z,8.63
2018-12-27T14:02:48.900Z,8.54
2018-12-27T14:03:49.394Z,8.63
2018-12-27T14:04:49.861Z,8.65
2018-12-27T14:05:50.355Z,8.58
2018-12-27T14:06:50.858Z,8.55
2018-12-27T14:07:51.376Z,8.53
2018-12-27T14:08:51.814Z,8.57
2018-12-27T14:09:52.296Z,8.54
2018-12-27T14:10:52.770Z,8.54
2018-12-27T14:11:53.258Z,8.45
2018-12-27T14:12:53.749Z,8.51
2018-12-27T14:13:54.236Z,8.48
2018-12-27T14:14:54.721Z,8.50
2018-12-27T14:15:55.208Z,8.42
2018-12-27T14:16:55.683Z,8.44
2018-12-27T14:17:56.165Z,8.44
2018-12-27T14:18:56.936Z,8.37
2018-12-27T14:19:57.481Z,8.45
2018-12-27T14:20:57.950Z,8.32
2018-12-27T14:21:58.427Z,8.28
2018-12-27T14:22:58.900Z,8.26
2018-12-27T14:23:59.387Z,8.28
2018-12-27T14:24:59.967Z,8.15
2018-12-27T14:26:00.448Z,8.15
2018-12-27T14:27:01.450Z,8.15
2018-12-27T14:28:01.480Z,8.18
2018-12-27T14:29:02.043Z,8.26
2018-12-27T14:30:02.528Z,8.26
2018-12-27T14:31:03.081Z,8.21
2018-12-27T14:32:03.553Z,8.18
2018-12-27T14:33:04.033Z,8.18
2018-12-27T14:34:04.503Z,8.10
2018-12-27T14:35:05.050Z,8.07
2018-12-27T14:36:05.534Z,8.14
2018-12-27T14:37:06.094Z,8.10
2018-12-27T14:38:06.581Z,8.08
2018-12-27T14:39:07.129Z,8.12
2018-12-27T14:40:07.618Z,8.03
2018-12-27T14:41:08.170Z,8.04
2018-12-27T14:42:08.653Z,8.04
2018-12-27T14:43:09.225Z,8.00
2018-12-27T14:44:09.697Z,7.97
2018-12-27T14:45:10.243Z,8.04
2018-12-27T14:46:10.735Z,8.02
2018-12-27T14:47:11.281Z,7.94
2018-12-27T14:48:11.770Z,7.93
2018-12-27T14:49:12.323Z,7.87
2018-12-27T14:50:12.813Z,7.96
2018-12-27T14:51:13.365Z,7.90
2018-12-27T14:52:13.843Z,7.90
2018-12-27T14:53:14.395Z,7.81
2018-12-27T14:54:14.865Z,7.77
2018-12-27T14:55:15.434Z,7.78
2018-12-27T14:56:15.913Z,7.74
2018-12-27T14:57:16.470Z,7.67
2018-12-27T14:58:16.948Z,7.75
2018-12-27T14:59:17.505Z,7.60
2018-12-27T15:00:17.988Z,7.56
2018-12-27T15:01:18.546Z,7.71
2018-12-27T15:02:19.041Z,7.53
2018-12-27T15:03:20.609Z,7.55
2018-12-27T15:04:21.082Z,7.56
2018-12-27T15:05:21.563Z,7.52
2018-12-27T15:06:22.066Z,7.58
2018-12-27T15:07:22.540Z,7.58
2018-12-27T15:08:23.022Z,7.53
2018-12-27T15:09:23.504Z,7.47
2018-12-27T15:10:23.973Z,7.44
2018-12-27T15:11:24.462Z,7.40
2018-12-27T15:12:24.937Z,7.42
2018-12-27T15:13:25.495Z,7.40